LDOS

Osijek Airport

Osijek, Croatia
TAF LDOS 251125Z 2512/2612 34008KT CAVOK TX15/2513Z TN03/2605Z TEMPO 2512/2514 34016KT BECMG 2604/2606 25004KT PROB30 TEMPO 2604/2607 3000 MIFG BR
Issued Valid From Valid To
Sep-25 @ 11:25 UTC
(6 hours ago)
Sep-25 @ 12:00 UTC
(5 hours ago)
Sep-26 @ 12:00 UTC
(in 19 hours)
Sep-25 @ 12:00 to Sep-26 @ 04:00
TAF LDOS 251125Z 2512/2612 34008KT CAVOK TX15/2513Z TN03/2605Z
Wind Visibility Clouds
340° at 8 knots 10,000+ meters
  • No significant clouds
Expired Click to View Sep-25 @ 12:00 to Sep-25 @ 14:00
TEMPO 2512/2514 34016KT
Wind
340° at 16 knots
Temporary  (Probability 30%) Sep-26 @ 04:00 to Sep-26 @ 07:00
PROB30 TEMPO 2604/2607 3000 MIFG BR
Visibility Conditions
2,993 meters
  • Shallow
  • Fog
  • Mist
Becoming Sep-26 @ 04:00 to Sep-26 @ 12:00
BECMG 2604/2606 25004KT
Wind Visibility Clouds
250° at 4 knots 10,000+ meters
  • No significant clouds
TAF LDOS 251125Z 2512/2612 34008KT CAVOK TX15/2513Z TN03/2605Z TEMPO 2512/2514 34016KT BECMG 2604/2606 25004KT PROB30 TEMPO 2604/2607 3000 MIFG BR
Issued Sep-25 @ 11:25 UTC
(6 hours ago)
Valid From Sep-25 @ 12:00 UTC
(5 hours ago)
Valid To Sep-26 @ 12:00 UTC
(in 19 hours)
Sep-25 @ 12:00 - Sep-26 @ 04:00
Wind Visibility
340° at 8 knots 10,000+ meters
Clouds
  • No significant clouds
Sep-25 @ 12:00 - Sep-25 @ 14:00
Wind
340° at 16 knots
Probability 30% Temporary Sep-26 @ 04:00 - Sep-26 @ 07:00
Conditions
  • Shallow
  • Fog
  • Mist
Becoming Sep-26 @ 04:00 - Sep-26 @ 12:00
Wind Visibility
250° at 4 knots 10,000+ meters
Clouds
  • No significant clouds